Time;durP1;ratioP1;P1;durP2;ratioP2;P2;SDS_P1;SDS_P2;PMS_P1;PMS_P2;Temp;Humidity;BMP_temperature;BMP_pressure;BME280_temperature;BME280_humidity;BME280_pressure;Samples;Min_cycle;Max_cycle;Signal;HPM_P1;HPM_P2
2022/01/02 00:02:03;;;;;;;7.40;3.40;;;13.40;99.90;;;;;;5039612;28;20045;-60
2022/01/02 00:04:30;;;;;;;4.15;1.38;;;13.40;99.90;;;;;;5031139;28;20128;-61
2022/01/02 00:07:00;;;;;;;5.45;2.10;;;13.40;99.90;;;;;;5049360;28;20475;-61
2022/01/02 00:09:35;;;;;;;4.05;1.65;;;13.40;99.90;;;;;;5049784;28;20056;-60
2022/01/02 00:12:11;;;;;;;3.95;1.50;;;13.40;99.90;;;;;;5048917;28;20563;-60
2022/01/02 00:14:41;;;;;;;4.85;1.50;;;13.40;99.90;;;;;;5049770;28;20405;-60
2022/01/02 00:17:09;;;;;;;4.63;1.60;;;13.40;99.90;;;;;;5048601;28;20048;-60
2022/01/02 00:19:39;;;;;;;5.22;1.40;;;13.40;99.90;;;;;;5047862;28;20099;-60
2022/01/02 00:22:14;;;;;;;7.72;1.50;;;13.40;99.90;;;;;;5046144;28;20072;-60
2022/01/02 00:24:42;;;;;;;3.65;1.52;;;13.40;99.90;;;;;;5049685;28;21551;-60
2022/01/02 00:27:10;;;;;;;3.25;1.35;;;13.40;99.90;;;;;;5048693;28;20090;-60
2022/01/02 00:29:38;;;;;;;2.03;1.20;;;13.40;99.90;;;;;;5015455;28;20091;-61
2022/01/02 00:32:07;;;;;;;5.95;1.77;;;13.40;99.90;;;;;;5048192;28;20053;-59
2022/01/02 00:34:35;;;;;;;6.43;1.40;;;13.40;99.90;;;;;;5049210;28;20091;-61
2022/01/02 00:37:03;;;;;;;6.72;1.70;;;13.40;99.90;;;;;;5049220;28;20571;-65
2022/01/02 00:39:30;;;;;;;4.10;1.77;;;13.40;99.90;;;;;;5049411;28;20060;-60
2022/01/02 00:42:04;;;;;;;4.65;1.80;;;13.40;99.90;;;;;;5049128;28;20052;-60
2022/01/02 00:44:45;;;;;;;6.40;1.75;;;13.40;99.90;;;;;;5048479;28;20099;-60
2022/01/02 00:47:32;;;;;;;5.10;1.90;;;13.40;99.90;;;;;;5032093;28;20045;-61
2022/01/02 00:50:13;;;;;;;7.22;2.13;;;13.50;99.90;;;;;;5029560;28;20068;-60
2022/01/02 00:52:45;;;;;;;8.05;2.35;;;13.40;99.90;;;;;;5046812;28;20111;-60
2022/01/02 00:55:16;;;;;;;8.10;1.92;;;13.40;99.90;;;;;;5048832;28;20063;-60
2022/01/02 00:57:43;;;;;;;10.10;2.38;;;13.40;99.90;;;;;;5048553;28;20092;-60
2022/01/02 01:00:17;;;;;;;9.68;2.05;;;13.40;99.90;;;;;;5048036;28;20048;-59
2022/01/02 01:02:47;;;;;;;8.73;2.13;;;13.40;99.90;;;;;;5048629;28;20072;-60
2022/01/02 01:05:27;;;;;;;8.93;2.00;;;13.40;99.90;;;;;;5048838;28;20640;-60
2022/01/02 01:07:55;;;;;;;4.40;2.10;;;13.40;99.90;;;;;;5047881;28;20491;-60
2022/01/02 01:10:23;;;;;;;8.32;2.33;;;13.40;99.90;;;;;;5049574;28;20049;-60
2022/01/02 01:12:52;;;;;;;9.90;3.08;;;13.40;99.90;;;;;;5048326;28;20478;-60
2022/01/02 01:15:20;;;;;;;9.90;2.50;;;13.40;99.90;;;;;;5048562;28;20060;-60
2022/01/02 01:17:48;;;;;;;16.80;3.97;;;13.40;99.90;;;;;;5048541;28;20052;-60
2022/01/02 01:20:16;;;;;;;8.50;2.17;;;13.30;99.90;;;;;;5048799;28;20048;-61
2022/01/02 01:22:44;;;;;;;12.25;2.63;;;13.40;99.90;;;;;;5048544;28;20053;-61
2022/01/02 01:25:15;;;;;;;12.60;2.65;;;13.40;99.90;;;;;;4702197;28;10000477;-60
2022/01/02 01:27:46;;;;;;;7.22;1.88;;;13.30;99.90;;;;;;5045760;28;20559;-60
2022/01/02 01:30:13;;;;;;;20.58;4.55;;;13.40;99.90;;;;;;5048807;28;20080;-61
2022/01/02 01:32:41;;;;;;;10.15;2.65;;;13.30;99.90;;;;;;5046708;28;20049;-57
2022/01/02 01:35:08;;;;;;;8.05;2.33;;;13.30;99.90;;;;;;5046917;28;20064;-60
2022/01/02 01:37:35;;;;;;;9.85;1.90;;;13.30;99.90;;;;;;5048442;28;20091;-59
2022/01/02 01:40:04;;;;;;;11.45;2.65;;;13.30;99.90;;;;;;5047305;28;20060;-60
2022/01/02 01:42:36;;;;;;;11.07;2.63;;;13.30;99.90;;;;;;5046972;28;20142;-60
2022/01/02 01:47:37;;;;;;;8.75;1.90;;;13.20;99.90;;;;;;5047998;28;20127;-59
2022/01/02 01:50:05;;;;;;;10.48;2.30;;;13.20;99.90;;;;;;5045204;28;20128;-60
2022/01/02 01:52:33;;;;;;;18.05;2.60;;;13.10;99.90;;;;;;5048005;28;20044;-60
2022/01/02 01:55:00;;;;;;;12.40;2.60;;;13.10;99.90;;;;;;5047013;28;20178;-60
2022/01/02 01:57:27;;;;;;;12.32;4.35;;;13.20;99.90;;;;;;5048735;28;20053;-60
2022/01/02 01:59:54;;;;;;;8.48;2.50;;;13.20;99.90;;;;;;5046327;28;20053;-61
2022/01/02 02:02:21;;;;;;;8.88;3.03;;;13.20;99.90;;;;;;5048110;28;20111;-62
2022/01/02 02:04:48;;;;;;;13.07;2.75;;;13.20;99.90;;;;;;5046215;28;20413;-59
2022/01/02 02:07:15;;;;;;;15.02;2.58;;;13.10;99.90;;;;;;5046861;28;20049;-60
2022/01/02 02:12:24;;;;;;;20.45;3.85;;;13.10;99.90;;;;;;5048024;28;20045;-60
2022/01/02 02:14:51;;;;;;;13.98;3.25;;;13.10;99.90;;;;;;5047775;28;20107;-61
2022/01/02 02:17:18;;;;;;;15.30;3.72;;;13.10;99.90;;;;;;5048097;28;20052;-61
2022/01/02 02:19:46;;;;;;;14.07;4.55;;;13.20;99.90;;;;;;5048795;28;20045;-60
2022/01/02 02:22:13;;;;;;;13.07;3.95;;;13.10;99.90;;;;;;5049137;28;20126;-61
2022/01/02 02:24:40;;;;;;;20.95;4.20;;;13.10;99.90;;;;;;5047952;28;20047;-59
2022/01/02 02:27:08;;;;;;;19.83;4.93;;;13.10;99.90;;;;;;5048339;28;20056;-59
2022/01/02 02:29:35;;;;;;;25.33;4.47;;;13.00;99.90;;;;;;5047733;28;20095;-60
2022/01/02 02:32:02;;;;;;;16.25;3.00;;;13.00;99.90;;;;;;5046417;28;20079;-59
2022/01/02 02:34:29;;;;;;;21.05;4.75;;;12.90;99.90;;;;;;5047084;28;20525;-61
2022/01/02 02:36:56;;;;;;;22.40;4.15;;;12.90;99.90;;;;;;5046799;28;20385;-60
2022/01/02 02:39:24;;;;;;;22.45;4.03;;;12.80;99.90;;;;;;5047466;28;20053;-61
2022/01/02 02:41:51;;;;;;;20.10;4.53;;;12.80;99.90;;;;;;5047318;28;20057;-59
2022/01/02 02:44:33;;;;;;;21.77;4.25;;;12.80;99.90;;;;;;5046273;28;20548;-60
2022/01/02 02:49:45;;;;;;;11.48;3.35;;;12.80;99.90;;;;;;5047300;28;20467;-61
2022/01/02 02:52:42;;;;;;;18.10;3.33;;;12.70;99.90;;;;;;5047265;28;20103;-61
2022/01/02 02:55:02;;;;;;;16.55;3.20;;;12.70;99.90;;;;;;5047166;28;20084;-60
2022/01/02 02:57:31;;;;;;;14.98;4.47;;;12.70;99.90;;;;;;5047671;28;20041;-61
2022/01/02 02:59:58;;;;;;;14.10;2.78;;;12.70;99.90;;;;;;5047440;28;20452;-61
2022/01/02 03:02:25;;;;;;;10.35;2.67;;;12.60;99.90;;;;;;5046954;28;20423;-61
2022/01/02 03:04:52;;;;;;;8.63;3.00;;;12.60;99.90;;;;;;5047586;28;20048;-61
2022/01/02 03:07:19;;;;;;;11.40;2.40;;;12.50;99.90;;;;;;5047038;28;20111;-61
2022/01/02 03:09:51;;;;;;;8.90;2.45;;;12.50;99.90;;;;;;5047070;28;20068;-61
2022/01/02 03:12:19;;;;;;;8.52;1.75;;;12.50;99.90;;;;;;5050357;28;20107;-61
2022/01/02 03:14:45;;;;;;;8.90;1.90;;;12.50;99.90;;;;;;5051348;28;20049;-60
2022/01/02 03:17:14;;;;;;;5.15;1.52;;;12.50;99.90;;;;;;5050948;28;20132;-60
2022/01/02 03:19:41;;;;;;;4.97;1.95;;;12.40;99.90;;;;;;5050544;28;20075;-61
2022/01/02 03:22:08;;;;;;;2.55;1.05;;;12.40;99.90;;;;;;5050276;28;20049;-61
2022/01/02 03:24:35;;;;;;;5.10;1.50;;;12.40;99.90;;;;;;5050621;28;20044;-61
2022/01/02 03:27:01;;;;;;;2.13;1.20;;;12.40;99.90;;;;;;5050918;28;20185;-60
2022/01/02 03:29:28;;;;;;;1.58;0.90;;;12.40;99.90;;;;;;5051094;28;20086;-61
2022/01/02 03:31:56;;;;;;;3.72;1.23;;;12.40;99.90;;;;;;5050331;28;20043;-61
2022/01/02 03:34:22;;;;;;;1.15;0.77;;;12.40;99.90;;;;;;5050461;28;20292;-61
2022/01/02 03:36:49;;;;;;;2.28;0.65;;;12.40;99.90;;;;;;5050463;28;20053;-61
2022/01/02 03:39:16;;;;;;;2.25;0.68;;;12.40;99.90;;;;;;5050623;28;20052;-61
2022/01/02 03:41:43;;;;;;;2.67;0.80;;;12.40;99.90;;;;;;5050305;28;20229;-61
2022/01/02 03:44:09;;;;;;;1.60;0.43;;;12.50;99.90;;;;;;5050522;28;20465;-60
2022/01/02 03:46:36;;;;;;;1.02;0.57;;;12.50;99.90;;;;;;5050666;28;20103;-61
2022/01/02 03:49:03;;;;;;;1.00;0.65;;;12.50;99.90;;;;;;5050479;28;20036;-61
2022/01/02 03:51:30;;;;;;;2.30;0.70;;;12.50;99.90;;;;;;5050388;28;20057;-61
2022/01/02 03:53:57;;;;;;;1.13;0.55;;;12.50;99.90;;;;;;5049872;28;20106;-62
2022/01/02 03:56:23;;;;;;;2.40;0.85;;;12.50;99.90;;;;;;5050596;28;20076;-60
2022/01/02 03:58:50;;;;;;;3.50;1.40;;;12.50;99.90;;;;;;5050345;28;20148;-60
2022/01/02 04:01:17;;;;;;;4.65;1.00;;;12.50;99.90;;;;;;5050255;28;20535;-60
2022/01/02 04:03:44;;;;;;;1.77;1.00;;;12.50;99.90;;;;;;5040075;28;20083;-60
2022/01/02 04:06:11;;;;;;;4.80;1.42;;;12.50;99.90;;;;;;5031207;28;20049;-61
2022/01/02 04:08:38;;;;;;;3.53;1.63;;;12.50;99.90;;;;;;5048514;28;20080;-61
2022/01/02 04:11:05;;;;;;;2.15;0.98;;;12.50;99.90;;;;;;5050106;28;20525;-61
2022/01/02 04:13:31;;;;;;;5.65;1.40;;;12.50;99.90;;;;;;5049647;28;20079;-60
2022/01/02 04:15:58;;;;;;;4.15;1.33;;;12.50;99.90;;;;;;5050153;28;20053;-61
2022/01/02 04:18:25;;;;;;;6.88;1.38;;;12.50;99.90;;;;;;5049567;28;20099;-61
2022/01/02 04:20:52;;;;;;;1.48;0.82;;;12.40;99.90;;;;;;5050468;28;20447;-63
2022/01/02 04:23:18;;;;;;;5.32;1.67;;;12.50;99.90;;;;;;5047813;28;20425;-60
2022/01/02 04:25:45;;;;;;;2.45;1.00;;;12.50;99.90;;;;;;5048552;28;20124;-60
2022/01/02 04:28:12;;;;;;;4.15;1.05;;;12.50;99.90;;;;;;5048380;28;20041;-60
2022/01/02 04:30:39;;;;;;;2.88;1.02;;;12.50;99.90;;;;;;5048613;28;20041;-59
2022/01/02 04:33:06;;;;;;;4.30;1.48;;;12.50;99.90;;;;;;5049633;28;20585;-61
2022/01/02 04:35:33;;;;;;;7.20;1.40;;;12.50;99.90;;;;;;5047204;28;20094;-60
2022/01/02 04:37:59;;;;;;;2.38;1.05;;;12.50;99.90;;;;;;5049956;28;20110;-61
2022/01/02 04:40:26;;;;;;;2.88;1.60;;;12.50;99.90;;;;;;5049520;28;20072;-61
2022/01/02 04:42:53;;;;;;;5.25;1.27;;;12.50;99.90;;;;;;5048550;28;20049;-60
2022/01/02 04:45:20;;;;;;;3.60;1.30;;;12.50;99.90;;;;;;5050336;28;20123;-59
2022/01/02 04:47:47;;;;;;;6.38;2.55;;;12.50;99.90;;;;;;5053334;28;20508;-60
2022/01/02 04:50:13;;;;;;;4.35;1.70;;;12.50;99.90;;;;;;5049652;28;20094;-60
2022/01/02 04:52:40;;;;;;;6.95;2.00;;;12.50;99.90;;;;;;5049491;28;20076;-60
2022/01/02 04:55:07;;;;;;;9.32;2.55;;;12.50;99.90;;;;;;5049149;28;20056;-60
2022/01/02 04:57:34;;;;;;;5.53;1.70;;;12.50;99.90;;;;;;5049290;28;20107;-61
2022/01/02 05:00:01;;;;;;;11.93;3.20;;;12.50;99.90;;;;;;5027675;28;20045;-61
2022/01/02 05:02:28;;;;;;;7.25;1.77;;;12.50;99.90;;;;;;5042858;28;20131;-61
2022/01/02 05:04:55;;;;;;;5.53;1.98;;;12.50;99.90;;;;;;5048569;28;20493;-61
2022/01/02 05:07:21;;;;;;;10.80;2.17;;;12.50;99.90;;;;;;5049241;28;20092;-61
2022/01/02 05:09:48;;;;;;;10.30;2.22;;;12.60;99.90;;;;;;5048767;28;20087;-61
2022/01/02 05:12:15;;;;;;;10.45;2.60;;;12.60;99.90;;;;;;5048780;28;20053;-61
2022/01/02 05:14:42;;;;;;;19.55;2.92;;;12.70;99.90;;;;;;5048553;28;20162;-61
2022/01/02 05:17:09;;;;;;;10.52;2.58;;;12.60;99.90;;;;;;5049039;28;20392;-64
2022/01/02 05:19:35;;;;;;;10.98;3.00;;;12.60;99.90;;;;;;5048733;28;20094;-61
2022/01/02 05:22:02;;;;;;;9.30;2.33;;;12.50;99.90;;;;;;5047272;28;20393;-61
2022/01/02 05:24:29;;;;;;;13.85;2.25;;;12.40;99.90;;;;;;5048777;28;20048;-61
2022/01/02 05:26:56;;;;;;;12.98;2.65;;;12.40;99.90;;;;;;5048439;28;20045;-61
2022/01/02 05:29:23;;;;;;;7.03;1.98;;;12.40;99.90;;;;;;5047531;28;20045;-61
2022/01/02 05:31:50;;;;;;;6.10;1.77;;;12.30;99.90;;;;;;5048278;28;20049;-61
2022/01/02 05:34:17;;;;;;;10.93;2.90;;;12.30;99.90;;;;;;5048192;28;20468;-61
2022/01/02 05:36:48;;;;;;;12.45;1.98;;;12.30;99.90;;;;;;5046795;28;20080;-61
2022/01/02 05:39:19;;;;;;;8.18;2.28;;;12.30;99.90;;;;;;5048512;28;20457;-61
2022/01/02 05:41:46;;;;;;;10.52;1.95;;;12.30;99.90;;;;;;5047714;28;20581;-60
2022/01/02 05:44:13;;;;;;;10.32;1.60;;;12.20;99.90;;;;;;5048180;28;20091;-61
2022/01/02 05:46:40;;;;;;;3.55;1.38;;;12.20;99.90;;;;;;5048085;28;20048;-61
2022/01/02 05:49:07;;;;;;;6.32;1.98;;;12.10;99.90;;;;;;5048167;28;20080;-61
2022/01/02 05:51:34;;;;;;;8.23;1.38;;;12.00;99.90;;;;;;5046693;28;20080;-61
2022/01/02 05:54:01;;;;;;;7.50;1.67;;;12.00;99.90;;;;;;5048168;28;20056;-61
2022/01/02 05:56:28;;;;;;;6.25;1.40;;;11.90;99.90;;;;;;5048103;28;20081;-62
2022/01/02 05:58:55;;;;;;;9.20;1.85;;;11.90;99.90;;;;;;5046840;28;20045;-61
2022/01/02 06:01:22;;;;;;;8.70;1.63;;;11.90;99.90;;;;;;5047956;28;20049;-60
2022/01/02 06:03:49;;;;;;;5.97;1.55;;;11.90;99.90;;;;;;5047338;28;20119;-61
2022/01/02 06:06:16;;;;;;;8.70;1.80;;;11.80;99.90;;;;;;5047593;28;20118;-60
2022/01/02 06:08:42;;;;;;;6.28;2.38;;;11.80;99.90;;;;;;5048027;28;20049;-60
2022/01/02 06:11:09;;;;;;;8.90;2.13;;;11.80;99.90;;;;;;5047818;28;20559;-60
2022/01/02 06:13:37;;;;;;;5.40;1.50;;;11.70;99.90;;;;;;5047363;28;20389;-61
2022/01/02 06:16:04;;;;;;;3.63;1.33;;;11.70;99.90;;;;;;5047650;28;20075;-61
2022/01/02 06:18:31;;;;;;;3.40;0.90;;;11.80;99.90;;;;;;5047536;28;20434;-61
2022/01/02 06:20:57;;;;;;;3.45;1.35;;;11.80;99.90;;;;;;5048073;28;20052;-61
2022/01/02 06:23:24;;;;;;;8.65;1.25;;;11.80;99.90;;;;;;5047799;28;20045;-61
2022/01/02 06:25:53;;;;;;;7.38;1.35;;;11.70;99.90;;;;;;5046165;28;20588;-61
2022/01/02 06:28:20;;;;;;;4.13;1.30;;;11.70;99.90;;;;;;5046058;28;20076;-61
2022/01/02 06:30:46;;;;;;;10.98;2.58;;;11.80;99.90;;;;;;5046387;28;20045;-61
2022/01/02 06:33:13;;;;;;;5.43;2.15;;;11.80;99.90;;;;;;5046147;28;20500;-61
2022/01/02 06:35:40;;;;;;;3.83;1.10;;;11.80;99.90;;;;;;5047277;28;20135;-61
2022/01/02 06:38:18;;;;;;;4.70;1.08;;;11.90;99.90;;;;;;5047274;28;20559;-66
2022/01/02 06:40:45;;;;;;;6.45;1.65;;;11.90;99.90;;;;;;5047699;28;20102;-63
2022/01/02 06:43:14;;;;;;;3.97;1.60;;;11.90;99.90;;;;;;5047557;28;20056;-61
2022/01/02 06:45:41;;;;;;;8.95;2.00;;;11.80;99.90;;;;;;5048038;28;20052;-60
2022/01/02 06:48:08;;;;;;;7.00;0.93;;;11.80;99.90;;;;;;5051062;28;20063;-61
2022/01/02 06:50:35;;;;;;;9.35;2.17;;;11.80;99.90;;;;;;5051628;28;20099;-60
2022/01/02 06:53:02;;;;;;;2.90;0.95;;;11.80;99.90;;;;;;5050154;28;20061;-60
2022/01/02 06:55:29;;;;;;;6.22;0.80;;;11.80;99.90;;;;;;5051781;28;20091;-61
2022/01/02 06:57:56;;;;;;;4.40;0.82;;;11.80;99.90;;;;;;5051958;28;20202;-61
2022/01/02 07:00:22;;;;;;;5.63;1.10;;;11.90;99.90;;;;;;5048104;28;20037;-60
2022/01/02 07:02:50;;;;;;;5.55;1.23;;;11.80;99.90;;;;;;5051602;28;20045;-60
2022/01/02 07:05:17;;;;;;;5.00;0.85;;;11.80;99.90;;;;;;5050655;28;20072;-61
2022/01/02 07:07:45;;;;;;;9.13;1.35;;;11.90;99.90;;;;;;5051414;28;20111;-60
2022/01/02 07:10:13;;;;;;;4.43;1.00;;;11.80;99.90;;;;;;5049834;28;20045;-61
2022/01/02 07:12:40;;;;;;;4.78;1.10;;;11.80;99.90;;;;;;5052386;28;20053;-61
2022/01/02 07:15:08;;;;;;;5.35;1.45;;;11.80;99.90;;;;;;5052819;28;20049;-61
2022/01/02 07:17:34;;;;;;;4.10;0.95;;;11.90;99.90;;;;;;5051608;28;20099;-61
2022/01/02 07:20:04;;;;;;;7.60;1.58;;;11.90;99.90;;;;;;5049553;28;20049;-61
2022/01/02 07:22:30;;;;;;;4.70;0.90;;;11.80;99.90;;;;;;5050969;28;20107;-61
2022/01/02 07:24:58;;;;;;;5.35;1.30;;;11.90;99.90;;;;;;5050488;28;20206;-61
2022/01/02 07:27:25;;;;;;;4.43;0.75;;;11.90;99.90;;;;;;5050816;28;20103;-60
2022/01/02 07:29:54;;;;;;;9.70;1.13;;;11.80;99.90;;;;;;5050616;28;20068;-60
2022/01/02 07:32:22;;;;;;;6.88;1.23;;;11.90;99.90;;;;;;5050880;28;20107;-60
2022/01/02 07:34:49;;;;;;;6.13;0.98;;;11.90;99.90;;;;;;5049522;28;20558;-60
2022/01/02 07:37:16;;;;;;;2.58;0.60;;;11.80;99.70;;;;;;5050532;28;20049;-60
2022/01/02 07:39:43;;;;;;;4.85;1.00;;;11.80;99.90;;;;;;5049704;28;20049;-60
2022/01/02 07:42:10;;;;;;;3.92;1.10;;;11.80;99.90;;;;;;4698148;28;10000194;-60
2022/01/02 07:44:37;;;;;;;3.70;1.00;;;11.80;99.60;;;;;;5045170;28;21289;-59
2022/01/02 07:47:05;;;;;;;7.53;1.20;;;11.80;99.60;;;;;;5042289;28;20080;-60
2022/01/02 07:49:32;;;;;;;5.20;1.55;;;11.80;99.70;;;;;;5045097;28;20527;-60
2022/01/02 07:51:59;;;;;;;4.40;1.00;;;11.80;99.70;;;;;;5046765;28;20056;-60
2022/01/02 07:54:25;;;;;;;4.88;0.93;;;11.90;99.70;;;;;;5046329;28;20053;-60
2022/01/02 07:56:52;;;;;;;6.97;0.90;;;11.80;99.50;;;;;;5046344;28;20488;-61
2022/01/02 07:59:19;;;;;;;10.15;1.13;;;11.70;99.00;;;;;;5046946;28;20562;-60
2022/01/02 08:01:46;;;;;;;6.70;0.88;;;11.80;99.20;;;;;;5046880;28;20053;-60
2022/01/02 08:04:13;;;;;;;5.13;0.60;;;11.80;99.40;;;;;;5044052;28;20048;-60
2022/01/02 08:06:41;;;;;;;6.85;1.20;;;11.70;99.40;;;;;;5046502;28;20045;-60
2022/01/02 08:09:08;;;;;;;6.10;0.80;;;11.70;99.10;;;;;;5046608;28;20289;-60
2022/01/02 08:11:34;;;;;;;4.18;1.98;;;11.70;98.90;;;;;;5046316;28;20049;-60
2022/01/02 08:14:15;;;;;;;9.77;0.88;;;11.70;99.10;;;;;;5045803;28;20087;-60
2022/01/02 08:16:43;;;;;;;5.03;0.90;;;11.70;99.40;;;;;;5046428;28;20103;-60
2022/01/02 08:19:10;;;;;;;3.67;1.00;;;11.70;99.20;;;;;;5046203;28;20053;-60
2022/01/02 08:21:37;;;;;;;4.90;0.90;;;11.70;99.50;;;;;;5045587;28;20088;-60
2022/01/02 08:24:04;;;;;;;3.08;1.10;;;11.70;99.30;;;;;;5045639;28;20052;-60
2022/01/02 08:26:31;;;;;;;9.48;1.42;;;11.60;99.60;;;;;;5043006;28;20090;-60
2022/01/02 08:29:00;;;;;;;5.13;1.17;;;11.70;99.40;;;;;;5046120;28;20084;-60
2022/01/02 08:31:28;;;;;;;8.45;1.25;;;11.60;99.30;;;;;;5045996;28;20110;-60
2022/01/02 08:33:55;;;;;;;3.75;1.00;;;11.70;99.60;;;;;;5035343;28;20052;-60
2022/01/02 08:36:22;;;;;;;3.80;0.70;;;11.60;99.40;;;;;;5046224;28;20068;-60
2022/01/02 08:38:49;;;;;;;5.07;0.90;;;11.60;99.20;;;;;;5028390;28;20064;-60
2022/01/02 08:41:17;;;;;;;7.15;1.08;;;11.60;99.20;;;;;;5045289;28;20053;-60
2022/01/02 08:43:44;;;;;;;5.35;1.00;;;11.60;99.40;;;;;;5045664;28;20171;-61
2022/01/02 08:46:11;;;;;;;7.97;1.10;;;11.70;99.10;;;;;;5045822;28;20049;-60
2022/01/02 08:48:37;;;;;;;4.85;1.08;;;11.60;99.10;;;;;;5045026;28;20045;-60
2022/01/02 08:51:05;;;;;;;3.15;0.80;;;11.60;99.20;;;;;;5033961;28;20068;-59
2022/01/02 08:53:34;;;;;;;6.00;1.02;;;11.70;99.10;;;;;;5043551;28;20088;-60
2022/01/02 08:56:01;;;;;;;8.27;1.15;;;11.70;98.70;;;;;;5041631;28;20136;-60
2022/01/02 08:58:27;;;;;;;3.47;0.82;;;11.60;98.90;;;;;;5044807;28;20182;-60
2022/01/02 09:00:56;;;;;;;4.25;1.00;;;11.60;99.00;;;;;;5044576;28;20413;-60
2022/01/02 09:03:23;;;;;;;3.63;0.60;;;11.60;99.20;;;;;;5042984;28;20231;-60
2022/01/02 09:05:51;;;;;;;10.05;1.60;;;11.60;99.10;;;;;;5044359;28;20308;-60
2022/01/02 09:08:17;;;;;;;3.50;0.90;;;11.60;98.70;;;;;;5043733;28;20136;-60
2022/01/02 09:10:44;;;;;;;6.32;1.77;;;11.60;99.00;;;;;;5044456;28;20551;-61
2022/01/02 09:13:11;;;;;;;3.80;1.00;;;11.60;98.90;;;;;;5043042;28;20076;-60
2022/01/02 09:15:38;;;;;;;4.97;0.90;;;11.60;99.00;;;;;;5041738;28;20114;-61
2022/01/02 09:18:05;;;;;;;2.53;0.77;;;11.60;99.10;;;;;;5043903;28;20057;-60
2022/01/02 09:20:32;;;;;;;5.25;1.08;;;11.60;98.60;;;;;;5044540;28;20110;-60
2022/01/02 09:22:59;;;;;;;8.32;1.45;;;11.60;98.40;;;;;;5045286;28;20056;-60
2022/01/02 09:25:26;;;;;;;5.13;1.92;;;11.60;98.60;;;;;;5043795;28;20080;-61
2022/01/02 09:27:53;;;;;;;8.07;1.48;;;11.60;98.70;;;;;;5044577;28;20056;-60
2022/01/02 09:30:20;;;;;;;6.07;1.08;;;11.50;98.60;;;;;;5044130;28;20492;-60
2022/01/02 09:32:47;;;;;;;3.00;0.77;;;11.60;98.80;;;;;;5044822;28;20729;-60
2022/01/02 09:35:14;;;;;;;6.30;0.95;;;11.60;98.80;;;;;;5043989;28;20053;-60
2022/01/02 09:37:41;;;;;;;5.25;1.02;;;11.60;98.60;;;;;;5044675;28;20073;-60
2022/01/02 09:40:08;;;;;;;4.97;0.93;;;11.60;98.50;;;;;;5043379;28;20114;-60
2022/01/02 09:42:35;;;;;;;5.72;0.70;;;11.60;98.50;;;;;;5045812;28;20076;-61
2022/01/02 09:45:03;;;;;;;5.30;0.77;;;11.60;97.70;;;;;;5027315;28;20569;-61
2022/01/02 09:47:30;;;;;;;7.53;1.20;;;11.60;98.10;;;;;;5041905;28;20087;-61
2022/01/02 09:49:57;;;;;;;3.60;0.80;;;11.60;98.00;;;;;;5043986;28;20076;-61
2022/01/02 09:52:23;;;;;;;6.03;1.00;;;11.60;97.60;;;;;;5043544;28;20088;-61
2022/01/02 09:54:50;;;;;;;2.35;0.68;;;11.70;98.00;;;;;;5043668;28;20593;-61
2022/01/02 09:57:17;;;;;;;6.10;0.98;;;11.70;97.90;;;;;;5042394;28;20665;-60
2022/01/02 09:59:44;;;;;;;6.38;1.02;;;11.70;98.00;;;;;;5041728;28;20052;-60
2022/01/02 10:02:11;;;;;;;9.93;2.05;;;11.70;97.60;;;;;;5040491;28;20084;-60
2022/01/02 10:04:40;;;;;;;3.28;1.00;;;11.70;97.20;;;;;;5041145;28;20123;-61
2022/01/02 10:07:31;;;;;;;6.35;1.33;;;11.70;97.40;;;;;;5045363;28;20076;-60
2022/01/02 10:10:06;;;;;;;1.75;0.80;;;11.80;97.40;;;;;;5042330;28;20646;-60
2022/01/02 10:12:33;;;;;;;4.20;1.00;;;11.80;97.40;;;;;;5042849;28;20496;-60
2022/01/02 10:15:06;;;;;;;2.67;0.77;;;11.80;97.80;;;;;;5043305;28;20064;-60
2022/01/02 10:18:06;;;;;;;5.43;1.17;;;11.80;97.50;;;;;;5042781;28;20090;-59
2022/01/02 10:20:37;;;;;;;4.68;1.30;;;11.90;97.50;;;;;;5042362;28;20130;-60
2022/01/02 10:23:18;;;;;;;4.97;1.42;;;12.00;97.70;;;;;;5042474;28;20131;-60
2022/01/02 10:25:49;;;;;;;5.03;2.35;;;12.00;97.10;;;;;;5046565;28;20156;-60
2022/01/02 10:28:32;;;;;;;8.40;1.33;;;12.00;97.60;;;;;;5049752;28;20108;-60
2022/01/02 10:31:10;;;;;;;7.35;1.10;;;12.00;97.70;;;;;;5043582;28;20130;-60
2022/01/02 10:33:55;;;;;;;3.03;1.02;;;12.10;97.70;;;;;;5041614;28;20049;-60
2022/01/02 10:36:30;;;;;;;4.13;0.90;;;12.10;97.10;;;;;;5043004;28;20041;-60
2022/01/02 10:38:58;;;;;;;4.28;0.90;;;12.10;98.00;;;;;;5042378;28;20689;-60
2022/01/02 10:41:30;;;;;;;5.38;0.90;;;12.20;97.70;;;;;;5043246;28;20080;-60
2022/01/02 10:44:15;;;;;;;8.68;1.48;;;12.20;97.90;;;;;;5041889;28;20053;-60
2022/01/02 10:47:05;;;;;;;3.60;0.90;;;12.20;97.60;;;;;;5041437;28;20490;-60
2022/01/02 10:49:53;;;;;;;7.35;1.13;;;12.30;97.40;;;;;;5042410;28;20057;-62
2022/01/02 10:52:27;;;;;;;3.50;0.75;;;12.30;96.30;;;;;;5042608;28;20057;-63
2022/01/02 10:54:56;;;;;;;3.97;0.90;;;12.40;97.10;;;;;;5042053;28;20064;-61
2022/01/02 10:57:27;;;;;;;4.78;1.27;;;12.50;97.20;;;;;;5042622;28;20124;-60
2022/01/02 10:59:57;;;;;;;4.65;0.90;;;12.60;96.80;;;;;;5043518;28;20096;-60
2022/01/02 11:02:25;;;;;;;5.68;1.05;;;12.60;96.10;;;;;;5043697;28;20049;-61
2022/01/02 11:04:59;;;;;;;7.82;1.35;;;12.60;96.70;;;;;;5043073;28;20049;-61
2022/01/02 11:07:26;;;;;;;5.15;1.35;;;12.60;96.40;;;;;;5042294;28;20080;-60
2022/01/02 11:09:55;;;;;;;9.25;1.85;;;12.50;96.20;;;;;;5041527;28;20052;-61
2022/01/02 11:12:25;;;;;;;7.75;3.05;;;12.50;96.90;;;;;;5042196;28;20059;-62
2022/01/02 11:14:52;;;;;;;4.95;1.13;;;12.40;96.40;;;;;;5043086;28;20107;-61
2022/01/02 11:17:19;;;;;;;3.00;1.17;;;12.30;96.70;;;;;;5042750;28;20131;-60
2022/01/02 11:19:46;;;;;;;3.55;0.80;;;12.30;96.40;;;;;;5043353;28;20048;-60
2022/01/02 11:22:22;;;;;;;4.72;1.00;;;12.20;96.70;;;;;;5042933;28;20786;-60
2022/01/02 11:24:54;;;;;;;3.40;1.45;;;12.20;96.00;;;;;;5042230;28;20048;-60
2022/01/02 11:27:23;;;;;;;6.00;1.58;;;12.20;96.20;;;;;;5026034;28;20072;-59
2022/01/02 11:29:50;;;;;;;6.43;1.20;;;12.20;96.70;;;;;;5041416;28;20135;-62
2022/01/02 11:32:26;;;;;;;5.88;1.52;;;12.20;96.20;;;;;;5044741;28;20061;-60
2022/01/02 11:34:53;;;;;;;1.70;1.08;;;12.20;96.20;;;;;;5046974;28;20515;-60
2022/01/02 11:37:26;;;;;;;8.23;1.13;;;12.20;96.70;;;;;;5047081;28;20958;-60
2022/01/02 11:40:04;;;;;;;6.47;1.50;;;12.20;96.60;;;;;;5046836;28;20060;-60
2022/01/02 11:42:38;;;;;;;8.55;2.08;;;12.20;96.30;;;;;;5029492;28;20049;-60
2022/01/02 11:45:06;;;;;;;;;;;12.20;96.50;;;;;;5047455;28;20095;-60
2022/01/02 11:47:40;;;;;;;4.88;1.02;;;12.20;96.40;;;;;;5045549;28;19972;-59
2022/01/02 11:50:46;;;;;;;5.50;1.13;;;12.20;96.60;;;;;;5044147;28;20587;-59
2022/01/02 11:53:13;;;;;;;7.97;1.05;;;12.20;95.70;;;;;;5045744;28;20628;-63
2022/01/02 11:55:42;;;;;;;14.88;1.27;;;12.30;96.80;;;;;;5035962;28;20498;-59
2022/01/02 11:58:08;;;;;;;7.63;0.88;;;12.30;96.80;;;;;;5046363;28;20128;-58
2022/01/02 12:00:43;;;;;;;5.80;1.30;;;12.40;96.80;;;;;;5046497;28;20498;-59
2022/01/02 12:03:38;;;;;;;9.15;3.50;;;12.40;96.10;;;;;;5046203;28;20136;-59
2022/01/02 12:06:25;;;;;;;3.80;1.02;;;12.40;96.00;;;;;;5036556;28;20054;-59
2022/01/02 12:08:54;;;;;;;4.95;0.85;;;12.50;96.10;;;;;;5044988;28;20041;-59
2022/01/02 12:11:41;;;;;;;5.63;1.10;;;12.50;96.60;;;;;;5045936;28;20118;-58
2022/01/02 12:14:09;;;;;;;12.65;1.30;;;12.50;96.10;;;;;;5046329;28;20542;-59
2022/01/02 12:16:58;;;;;;;4.15;1.27;;;12.30;96.30;;;;;;5046131;28;20057;-58
2022/01/02 12:19:25;;;;;;;3.58;1.15;;;12.50;95.70;;;;;;5034234;28;20053;-58
2022/01/02 12:22:12;;;;;;;11.52;1.95;;;12.50;96.50;;;;;;5046182;28;20064;-58
2022/01/02 12:24:40;;;;;;;2.92;0.82;;;12.50;96.50;;;;;;5040877;28;20049;-58
2022/01/02 12:27:08;;;;;;;3.85;1.00;;;12.40;96.40;;;;;;5044389;28;20067;-60
2022/01/02 12:29:35;;;;;;;6.57;0.88;;;12.40;96.70;;;;;;5045046;28;20631;-59
2022/01/02 12:32:03;;;;;;;9.02;1.20;;;12.50;97.00;;;;;;5044693;28;20052;-59
2022/01/02 12:34:32;;;;;;;8.52;1.17;;;12.40;96.80;;;;;;5044200;28;20455;-59
2022/01/02 12:36:59;;;;;;;7.80;2.17;;;12.40;96.90;;;;;;5043459;28;20517;-59
2022/01/02 12:39:33;;;;;;;11.80;1.60;;;12.40;96.90;;;;;;5044930;28;20111;-58
2022/01/02 12:42:07;;;;;;;7.30;1.30;;;12.40;96.70;;;;;;5043552;28;20115;-58
2022/01/02 12:44:35;;;;;;;7.45;1.35;;;12.40;96.80;;;;;;5044114;28;20102;-59
2022/01/02 12:47:03;;;;;;;9.40;1.77;;;12.50;97.30;;;;;;5043071;28;20056;-59
2022/01/02 12:49:35;;;;;;;5.93;1.45;;;12.50;96.60;;;;;;5043341;28;20455;-59
2022/01/02 12:52:10;;;;;;;7.93;1.50;;;12.50;96.80;;;;;;5044406;28;20044;-60
2022/01/02 12:54:39;;;;;;;10.02;1.67;;;12.50;97.00;;;;;;5042229;28;20092;-58
2022/01/02 12:57:08;;;;;;;11.85;1.85;;;12.60;96.90;;;;;;5044223;28;20060;-58
2022/01/02 12:59:39;;;;;;;5.97;1.35;;;12.50;96.60;;;;;;5045551;28;20045;-59
2022/01/02 13:02:10;;;;;;;6.53;1.27;;;12.60;97.10;;;;;;5045332;28;20670;-59
2022/01/02 13:04:41;;;;;;;8.60;1.52;;;12.50;97.10;;;;;;5044859;28;20288;-58